Time;durP1;ratioP1;P1;durP2;ratioP2;P2;SDS_P1;SDS_P2;PMS_P1;PMS_P2;Temp;Humidity;BMP_temperature;BMP_pressure;BME280_temperature;BME280_humidity;BME280_pressure;Samples;Min_cycle;Max_cycle;Signal;HPM_P1;HPM_P2
2023/08/17 00:01:41;;;;;;;4.60;1.98;;;15.90;99.90;;;;;;5053479;28;20041;-70
2023/08/17 00:04:07;;;;;;;3.63;2.05;;;15.90;99.90;;;;;;5053118;28;20178;-70
2023/08/17 00:06:33;;;;;;;4.47;2.00;;;15.90;99.90;;;;;;5053350;28;20057;-70
2023/08/17 00:08:58;;;;;;;3.00;1.83;;;15.90;99.90;;;;;;5053340;28;20045;-71
2023/08/17 00:11:24;;;;;;;5.30;1.98;;;15.90;99.90;;;;;;5053679;28;20072;-70
2023/08/17 00:13:50;;;;;;;3.25;1.90;;;15.80;99.90;;;;;;5035791;28;20393;-70
2023/08/17 00:16:16;;;;;;;3.58;1.75;;;15.80;99.90;;;;;;5053268;28;20041;-71
2023/08/17 00:18:42;;;;;;;3.75;2.00;;;15.80;99.90;;;;;;5053307;28;20044;-71
2023/08/17 00:21:07;;;;;;;5.65;2.13;;;15.70;99.90;;;;;;5053207;28;20501;-70
2023/08/17 00:23:34;;;;;;;4.03;2.00;;;15.70;99.90;;;;;;5036345;28;20044;-70
2023/08/17 00:25:59;;;;;;;4.03;1.70;;;15.70;99.90;;;;;;5054021;28;20088;-70
2023/08/17 00:28:25;;;;;;;4.00;2.10;;;15.70;99.90;;;;;;5053380;28;20040;-71
2023/08/17 00:30:51;;;;;;;3.50;1.95;;;15.70;99.90;;;;;;5035662;28;20053;-71
2023/08/17 00:33:17;;;;;;;5.95;2.40;;;15.70;99.90;;;;;;5039251;28;20581;-70
2023/08/17 00:35:43;;;;;;;5.07;2.30;;;15.70;99.90;;;;;;5057051;28;20048;-70
2023/08/17 00:38:08;;;;;;;3.22;2.10;;;15.70;99.90;;;;;;5057444;28;20049;-71
2023/08/17 00:40:34;;;;;;;3.53;2.10;;;15.70;99.90;;;;;;5039242;28;20049;-71
2023/08/17 00:43:00;;;;;;;5.00;1.95;;;15.70;99.90;;;;;;5057421;28;20053;-71
2023/08/17 00:45:26;;;;;;;2.88;2.00;;;15.70;99.90;;;;;;5056739;28;20040;-71
2023/08/17 00:47:56;;;;;;;3.55;2.20;;;15.70;99.90;;;;;;5039967;28;20052;-70
2023/08/17 00:50:22;;;;;;;4.50;2.00;;;15.70;99.90;;;;;;5056743;28;20049;-70
2023/08/17 00:52:49;;;;;;;7.22;2.00;;;15.70;99.90;;;;;;5056354;28;20045;-71
2023/08/17 00:55:14;;;;;;;3.78;2.03;;;15.70;99.90;;;;;;5056618;28;20501;-70
2023/08/17 00:57:41;;;;;;;4.15;2.00;;;15.70;99.90;;;;;;5056571;28;20132;-71
2023/08/17 01:00:09;;;;;;;2.90;1.90;;;15.70;99.90;;;;;;5057424;28;20072;-71
2023/08/17 01:02:35;;;;;;;3.97;1.73;;;15.70;99.90;;;;;;5055884;28;20171;-71
2023/08/17 01:05:02;;;;;;;3.05;2.03;;;15.80;99.90;;;;;;5056341;28;20485;-71
2023/08/17 01:07:27;;;;;;;3.53;2.05;;;15.80;99.90;;;;;;5056451;28;20504;-70
2023/08/17 01:09:53;;;;;;;4.93;1.75;;;15.80;99.90;;;;;;5056322;28;20045;-70
2023/08/17 01:12:30;;;;;;;3.90;1.92;;;15.80;99.90;;;;;;5056411;28;20045;-71
2023/08/17 01:15:23;;;;;;;2.83;1.70;;;15.80;99.90;;;;;;5056336;28;20041;-70
2023/08/17 01:18:03;;;;;;;4.75;1.80;;;15.80;99.90;;;;;;5039503;28;20128;-70
2023/08/17 01:20:30;;;;;;;3.88;1.73;;;15.80;99.90;;;;;;5057060;28;20045;-70
2023/08/17 01:23:05;;;;;;;5.32;2.10;;;15.80;99.90;;;;;;5056176;28;20040;-71
2023/08/17 01:25:36;;;;;;;3.28;1.60;;;15.90;99.90;;;;;;5056106;28;20087;-70
2023/08/17 01:28:05;;;;;;;3.20;2.00;;;15.80;99.90;;;;;;5055994;28;20119;-71
2023/08/17 01:30:42;;;;;;;4.18;2.00;;;15.90;99.90;;;;;;5055965;28;20135;-70
2023/08/17 01:33:09;;;;;;;3.58;1.90;;;15.90;99.90;;;;;;5039240;28;20056;-70
2023/08/17 01:35:42;;;;;;;5.03;1.85;;;15.90;99.90;;;;;;5055950;28;20084;-70
2023/08/17 01:38:12;;;;;;;2.75;1.58;;;15.90;99.90;;;;;;5055831;28;20104;-70
2023/08/17 01:40:38;;;;;;;4.38;1.63;;;15.90;99.90;;;;;;5055835;28;20044;-70
2023/08/17 01:43:04;;;;;;;2.58;1.50;;;15.80;99.90;;;;;;5038000;28;20045;-70
2023/08/17 01:45:30;;;;;;;4.00;1.67;;;15.90;99.90;;;;;;5055299;28;20563;-70
2023/08/17 01:47:56;;;;;;;4.20;1.85;;;15.90;99.90;;;;;;5055706;28;20053;-70
2023/08/17 01:50:22;;;;;;;3.70;1.63;;;15.90;99.90;;;;;;5055631;28;20385;-70
2023/08/17 01:52:47;;;;;;;4.47;1.52;;;15.90;99.90;;;;;;5038234;28;20043;-70
2023/08/17 01:55:13;;;;;;;2.38;1.35;;;15.80;99.90;;;;;;5055825;28;20106;-70
2023/08/17 01:57:39;;;;;;;3.45;1.48;;;15.80;99.90;;;;;;5055816;28;20064;-70
2023/08/17 02:00:05;;;;;;;4.03;1.60;;;15.80;99.90;;;;;;5055489;28;20425;-70
2023/08/17 02:02:31;;;;;;;2.70;1.60;;;15.80;99.90;;;;;;5055651;28;20504;-71
2023/08/17 02:04:57;;;;;;;3.20;1.55;;;15.80;99.90;;;;;;5055338;28;20061;-70
2023/08/17 02:07:23;;;;;;;3.88;1.38;;;15.80;99.90;;;;;;5055249;28;20051;-70
2023/08/17 02:09:49;;;;;;;4.45;1.45;;;15.80;99.90;;;;;;5055247;28;20049;-71
2023/08/17 02:12:14;;;;;;;3.15;1.33;;;15.80;99.90;;;;;;5055778;28;20045;-70
2023/08/17 02:14:40;;;;;;;3.55;1.30;;;15.80;99.90;;;;;;5055434;28;20048;-71
2023/08/17 02:17:06;;;;;;;2.88;1.40;;;15.80;99.90;;;;;;5037375;28;20045;-71
2023/08/17 02:19:32;;;;;;;2.85;1.60;;;15.80;99.90;;;;;;5055105;28;20045;-71
2023/08/17 02:21:58;;;;;;;2.17;1.40;;;15.80;99.90;;;;;;5054039;28;20056;-71
2023/08/17 02:24:25;;;;;;;2.33;1.30;;;15.70;99.90;;;;;;5054809;28;20125;-70
2023/08/17 02:26:51;;;;;;;3.67;1.55;;;15.80;99.90;;;;;;5054871;28;20079;-70
2023/08/17 02:29:16;;;;;;;2.28;1.30;;;15.80;99.90;;;;;;5054876;28;20045;-70
2023/08/17 02:31:42;;;;;;;2.80;1.25;;;15.80;99.90;;;;;;5054787;28;20080;-71
2023/08/17 02:34:09;;;;;;;2.33;1.40;;;15.80;99.90;;;;;;5054813;28;20040;-71
2023/08/17 02:36:35;;;;;;;2.90;1.50;;;15.90;99.90;;;;;;5054663;28;20151;-71
2023/08/17 02:39:00;;;;;;;3.85;1.58;;;15.90;99.90;;;;;;5054654;28;20127;-70
2023/08/17 02:41:26;;;;;;;2.63;1.50;;;15.90;99.90;;;;;;5054622;28;20047;-70
2023/08/17 02:43:52;;;;;;;3.50;1.55;;;15.80;99.90;;;;;;5054544;28;20045;-71
2023/08/17 02:46:17;;;;;;;2.17;1.50;;;15.80;99.90;;;;;;5054603;28;20468;-70
2023/08/17 02:48:43;;;;;;;4.95;1.63;;;15.80;99.90;;;;;;5054823;28;20130;-70
2023/08/17 02:51:09;;;;;;;3.25;1.52;;;15.80;99.90;;;;;;5055012;28;20128;-70
2023/08/17 02:53:34;;;;;;;4.32;1.77;;;15.80;99.90;;;;;;5054639;28;20386;-70
2023/08/17 02:56:00;;;;;;;4.00;1.70;;;15.80;99.90;;;;;;5054238;28;20106;-71
2023/08/17 02:58:26;;;;;;;5.78;1.70;;;15.70;99.90;;;;;;5054793;28;20359;-70
2023/08/17 03:00:52;;;;;;;3.72;1.73;;;15.70;99.90;;;;;;5036411;28;20132;-70
2023/08/17 03:03:18;;;;;;;3.33;1.77;;;15.60;99.90;;;;;;5054234;28;20410;-70
2023/08/17 03:05:43;;;;;;;3.55;1.60;;;15.60;99.90;;;;;;5054357;28;20056;-70
2023/08/17 03:08:09;;;;;;;3.42;1.80;;;15.50;99.90;;;;;;5054063;28;20057;-70
2023/08/17 03:10:35;;;;;;;4.47;2.00;;;15.50;99.90;;;;;;5054091;28;20052;-70
2023/08/17 03:13:00;;;;;;;3.47;1.70;;;15.50;99.90;;;;;;5036324;28;20041;-71
2023/08/17 03:15:26;;;;;;;4.55;1.70;;;15.50;99.90;;;;;;5054905;28;20040;-70
2023/08/17 03:17:52;;;;;;;3.08;1.80;;;15.50;99.90;;;;;;5054084;28;20417;-70
2023/08/17 03:20:17;;;;;;;3.95;1.73;;;15.50;99.90;;;;;;5053992;28;20053;-70
2023/08/17 03:22:43;;;;;;;3.30;1.95;;;15.50;99.90;;;;;;5037082;28;20041;-71
2023/08/17 03:25:09;;;;;;;5.85;1.70;;;15.50;99.90;;;;;;5054386;28;20033;-71
2023/08/17 03:27:34;;;;;;;4.38;1.77;;;15.50;99.90;;;;;;5036077;28;20048;-70
2023/08/17 03:30:00;;;;;;;4.90;2.03;;;15.50;99.90;;;;;;5054213;28;20385;-70
2023/08/17 03:32:26;;;;;;;5.15;2.08;;;15.50;99.90;;;;;;5053799;28;20045;-70
2023/08/17 03:34:51;;;;;;;4.20;2.00;;;15.50;99.90;;;;;;5053738;28;20139;-70
2023/08/17 03:37:17;;;;;;;2.97;1.85;;;15.50;99.90;;;;;;5054398;28;20052;-70
2023/08/17 03:39:43;;;;;;;3.53;2.13;;;15.50;99.90;;;;;;5053668;28;20052;-70
2023/08/17 03:42:08;;;;;;;4.15;1.85;;;15.40;99.90;;;;;;5053619;28;20045;-70
2023/08/17 03:44:34;;;;;;;4.65;2.60;;;15.50;99.90;;;;;;5035931;28;20079;-70
2023/08/17 03:47:00;;;;;;;4.07;2.10;;;15.50;99.90;;;;;;5053682;28;20182;-70
2023/08/17 03:49:25;;;;;;;3.90;2.03;;;15.50;99.90;;;;;;5053890;28;20044;-70
2023/08/17 03:51:51;;;;;;;4.55;2.20;;;15.50;99.90;;;;;;5053576;28;20466;-70
2023/08/17 03:54:17;;;;;;;3.55;2.00;;;15.50;99.90;;;;;;5053496;28;20072;-70
2023/08/17 03:56:43;;;;;;;5.03;2.13;;;15.60;99.90;;;;;;5053494;28;20041;-70
2023/08/17 03:59:08;;;;;;;3.42;2.00;;;15.60;99.90;;;;;;5053447;28;20110;-70
2023/08/17 04:01:34;;;;;;;3.42;2.00;;;15.60;99.90;;;;;;5053781;28;20402;-70
2023/08/17 04:04:00;;;;;;;4.28;2.20;;;15.60;99.90;;;;;;5053279;28;20057;-70
2023/08/17 04:06:25;;;;;;;3.22;2.25;;;15.60;99.90;;;;;;5054722;28;20056;-70
2023/08/17 04:08:51;;;;;;;3.97;2.13;;;15.60;99.90;;;;;;5058001;28;20045;-70
2023/08/17 04:11:17;;;;;;;3.22;2.20;;;15.60;99.90;;;;;;5039902;28;20045;-70
2023/08/17 04:13:42;;;;;;;3.22;2.08;;;15.70;99.90;;;;;;5057653;28;20057;-71
2023/08/17 04:16:08;;;;;;;5.05;2.10;;;15.60;99.90;;;;;;5057574;28;20055;-70
2023/08/17 04:18:34;;;;;;;3.65;2.33;;;15.70;99.90;;;;;;5057816;28;20045;-70
2023/08/17 04:20:59;;;;;;;2.67;1.85;;;15.70;99.90;;;;;;5057865;28;20428;-70
2023/08/17 04:23:25;;;;;;;6.43;2.13;;;15.70;99.90;;;;;;5057985;28;20066;-70
2023/08/17 04:25:51;;;;;;;5.07;2.08;;;15.70;99.90;;;;;;5057263;28;20049;-70
2023/08/17 04:28:16;;;;;;;3.78;1.95;;;15.70;99.90;;;;;;5039556;28;20513;-70
2023/08/17 04:30:42;;;;;;;3.65;2.03;;;15.70;99.90;;;;;;5057131;28;20107;-70
2023/08/17 04:33:08;;;;;;;3.65;2.20;;;15.70;99.90;;;;;;5057068;28;20037;-70
2023/08/17 04:35:34;;;;;;;5.18;1.88;;;15.70;99.90;;;;;;5056967;28;20073;-70
2023/08/17 04:37:59;;;;;;;3.38;1.92;;;15.80;99.90;;;;;;5056935;28;20056;-71
2023/08/17 04:40:25;;;;;;;4.78;2.22;;;15.80;99.90;;;;;;5039095;28;20470;-70
2023/08/17 04:42:51;;;;;;;4.93;2.03;;;15.80;99.90;;;;;;5056615;28;20095;-70
2023/08/17 04:45:17;;;;;;;4.22;1.67;;;15.80;99.90;;;;;;5039881;28;20041;-70
2023/08/17 04:47:43;;;;;;;3.95;1.75;;;15.80;99.90;;;;;;5055844;28;20049;-71
2023/08/17 04:50:09;;;;;;;5.22;1.95;;;15.80;99.90;;;;;;5056510;28;20053;-70
2023/08/17 04:52:34;;;;;;;5.90;2.17;;;15.80;99.90;;;;;;5056075;28;20045;-70
2023/08/17 04:55:00;;;;;;;5.30;2.00;;;15.80;99.90;;;;;;5056817;28;20041;-70
2023/08/17 04:57:27;;;;;;;4.47;1.65;;;15.80;99.90;;;;;;5055888;28;20493;-70
2023/08/17 04:59:53;;;;;;;4.65;2.00;;;15.80;99.90;;;;;;5057082;28;20048;-70
2023/08/17 05:02:19;;;;;;;3.97;1.60;;;15.80;99.90;;;;;;5038577;28;20041;-70
2023/08/17 05:04:46;;;;;;;3.25;1.73;;;15.80;99.90;;;;;;5055815;28;20064;-70
2023/08/17 05:07:12;;;;;;;3.88;1.77;;;15.80;99.90;;;;;;5055667;28;20507;-70
2023/08/17 05:09:37;;;;;;;3.13;1.60;;;15.80;99.90;;;;;;5056390;28;20053;-70
2023/08/17 05:12:03;;;;;;;4.25;1.90;;;15.80;99.90;;;;;;5056188;28;20041;-70
2023/08/17 05:14:29;;;;;;;4.18;1.70;;;15.80;99.90;;;;;;5056628;28;20500;-70
2023/08/17 05:16:55;;;;;;;5.47;1.88;;;15.80;99.90;;;;;;5056621;28;20080;-70
2023/08/17 05:19:20;;;;;;;3.65;1.40;;;15.80;99.90;;;;;;5054812;28;20056;-70
2023/08/17 05:21:48;;;;;;;4.22;1.85;;;15.80;99.90;;;;;;5056040;28;20492;-70
2023/08/17 05:24:14;;;;;;;4.43;1.85;;;15.90;99.90;;;;;;5056573;28;20124;-70
2023/08/17 05:26:40;;;;;;;2.00;1.50;;;15.90;99.90;;;;;;5056028;28;20163;-71
2023/08/17 05:29:05;;;;;;;4.68;1.75;;;15.90;99.90;;;;;;5056248;28;20371;-70
2023/08/17 05:31:31;;;;;;;5.82;1.70;;;15.90;99.90;;;;;;5022093;28;20114;-70
2023/08/17 05:33:57;;;;;;;3.42;1.45;;;15.90;99.90;;;;;;5055974;28;20187;-70
2023/08/17 05:36:22;;;;;;;3.70;1.70;;;15.90;99.90;;;;;;5056795;28;20045;-70
2023/08/17 05:38:48;;;;;;;2.83;1.42;;;16.00;99.90;;;;;;5055809;28;20128;-71
2023/08/17 05:41:15;;;;;;;3.92;1.50;;;16.00;99.90;;;;;;5055796;28;20053;-70
2023/08/17 05:43:41;;;;;;;2.60;1.48;;;16.00;99.90;;;;;;5055784;28;20049;-70
2023/08/17 05:46:06;;;;;;;3.60;1.52;;;16.10;99.90;;;;;;5055428;28;20067;-71
2023/08/17 05:48:32;;;;;;;3.95;1.55;;;16.10;99.90;;;;;;5055704;28;20121;-71
2023/08/17 05:50:58;;;;;;;2.30;1.50;;;16.10;99.90;;;;;;5055669;28;20071;-70
2023/08/17 05:53:24;;;;;;;3.00;1.70;;;16.10;99.90;;;;;;5038437;28;20041;-70
2023/08/17 05:55:49;;;;;;;4.07;1.50;;;16.10;99.90;;;;;;5055605;28;20049;-70
2023/08/17 05:58:15;;;;;;;4.78;1.70;;;16.10;99.90;;;;;;5055505;28;20045;-71
2023/08/17 06:00:41;;;;;;;3.85;1.40;;;16.10;99.90;;;;;;5055485;28;20049;-70
2023/08/17 06:03:07;;;;;;;3.90;1.73;;;16.20;99.90;;;;;;5055401;28;20098;-70
2023/08/17 06:05:33;;;;;;;4.13;1.48;;;16.20;99.90;;;;;;5055311;28;20044;-70
2023/08/17 06:07:59;;;;;;;3.38;1.70;;;16.30;99.90;;;;;;5055815;28;20057;-70
2023/08/17 06:10:25;;;;;;;3.65;1.67;;;16.30;99.90;;;;;;5055182;28;20178;-70
2023/08/17 06:12:53;;;;;;;5.43;1.73;;;16.30;99.90;;;;;;5037660;28;20482;-70
2023/08/17 06:15:18;;;;;;;5.50;1.52;;;16.40;99.90;;;;;;5055484;28;20052;-68
2023/08/17 06:17:44;;;;;;;2.47;1.40;;;16.40;99.90;;;;;;5055133;28;20394;-68
2023/08/17 06:20:11;;;;;;;4.63;1.40;;;16.40;99.90;;;;;;5054178;28;20051;-67
2023/08/17 06:22:37;;;;;;;5.10;1.70;;;16.50;99.90;;;;;;5037231;28;20106;-67
2023/08/17 06:25:05;;;;;;;2.90;1.80;;;16.60;99.90;;;;;;5037159;28;20037;-67
2023/08/17 06:27:30;;;;;;;4.47;1.70;;;16.50;99.90;;;;;;5054931;28;20056;-67
2023/08/17 06:29:56;;;;;;;4.93;1.45;;;16.60;99.90;;;;;;5054445;28;20052;-68
2023/08/17 06:32:22;;;;;;;4.45;1.30;;;16.60;99.90;;;;;;5055470;28;20048;-67
2023/08/17 06:34:47;;;;;;;4.10;1.52;;;16.70;99.90;;;;;;5037155;28;20126;-68
2023/08/17 06:37:13;;;;;;;3.78;1.90;;;16.80;99.90;;;;;;5055156;28;20045;-68
2023/08/17 06:39:39;;;;;;;4.03;1.55;;;16.80;99.90;;;;;;5054799;28;20132;-67
2023/08/17 06:42:05;;;;;;;2.38;1.23;;;16.80;99.90;;;;;;5054307;28;20110;-68
2023/08/17 06:44:31;;;;;;;3.58;1.67;;;16.90;99.90;;;;;;5054545;28;20082;-68
2023/08/17 06:46:57;;;;;;;3.03;1.30;;;16.90;99.90;;;;;;5054453;28;20088;-68
2023/08/17 06:49:22;;;;;;;3.85;1.25;;;16.90;99.90;;;;;;5037286;28;20390;-67
2023/08/17 06:51:48;;;;;;;3.47;1.13;;;16.90;99.90;;;;;;5037520;28;20091;-68
2023/08/17 06:54:14;;;;;;;3.17;1.20;;;16.90;99.90;;;;;;5054952;28;20146;-68
2023/08/17 06:56:40;;;;;;;3.92;1.30;;;16.90;99.90;;;;;;5054473;28;20048;-67
2023/08/17 06:59:06;;;;;;;3.55;1.45;;;16.90;99.90;;;;;;5054377;28;20378;-67
2023/08/17 07:01:32;;;;;;;4.50;1.42;;;16.90;99.90;;;;;;5037588;28;20049;-67
2023/08/17 07:03:58;;;;;;;3.33;1.02;;;16.90;99.90;;;;;;5054753;28;20453;-67
2023/08/17 07:06:25;;;;;;;4.82;1.52;;;16.90;99.90;;;;;;5054028;28;20059;-67
2023/08/17 07:08:52;;;;;;;2.78;1.10;;;16.90;99.90;;;;;;5054045;28;20057;-67
2023/08/17 07:11:18;;;;;;;2.35;1.20;;;16.90;99.90;;;;;;5053178;28;20057;-68
2023/08/17 07:13:44;;;;;;;2.50;1.15;;;17.00;99.90;;;;;;5036002;28;20057;-68
2023/08/17 07:16:10;;;;;;;3.03;1.30;;;17.00;99.90;;;;;;5054405;28;20362;-67
2023/08/17 07:18:36;;;;;;;5.13;1.40;;;17.00;99.90;;;;;;5054276;28;20403;-70
2023/08/17 07:21:01;;;;;;;3.33;1.20;;;17.00;99.90;;;;;;5053825;28;20102;-67
2023/08/17 07:23:27;;;;;;;3.22;1.20;;;17.00;99.90;;;;;;5053826;28;20478;-68
2023/08/17 07:25:53;;;;;;;2.30;1.20;;;17.00;99.90;;;;;;5054482;28;20044;-69
2023/08/17 07:28:18;;;;;;;3.15;1.23;;;17.10;99.90;;;;;;5054217;28;20041;-67
2023/08/17 07:30:44;;;;;;;3.47;1.20;;;17.10;99.90;;;;;;5053748;28;20068;-68
2023/08/17 07:33:10;;;;;;;2.45;1.02;;;17.10;99.90;;;;;;5053603;28;20049;-68
2023/08/17 07:35:36;;;;;;;2.78;1.08;;;17.10;99.90;;;;;;5053601;28;20371;-67
2023/08/17 07:38:01;;;;;;;4.53;1.20;;;17.10;99.90;;;;;;5053612;28;20052;-67
2023/08/17 07:40:27;;;;;;;3.33;1.23;;;17.10;99.90;;;;;;5053984;28;20492;-69
2023/08/17 07:42:53;;;;;;;4.45;1.00;;;17.10;99.90;;;;;;5053176;28;20088;-69
2023/08/17 07:45:19;;;;;;;3.63;1.35;;;17.10;99.90;;;;;;5053998;28;20102;-67
2023/08/17 07:47:44;;;;;;;2.90;1.20;;;17.10;99.90;;;;;;5053446;28;20055;-68
2023/08/17 07:50:10;;;;;;;2.58;1.23;;;17.10;99.90;;;;;;5053708;28;20075;-68
2023/08/17 07:52:36;;;;;;;6.03;1.10;;;17.10;99.90;;;;;;5053435;28;20486;-67
2023/08/17 07:55:03;;;;;;;3.88;1.10;;;17.10;99.90;;;;;;5053366;28;20037;-68
2023/08/17 07:57:28;;;;;;;2.00;1.15;;;17.20;99.90;;;;;;5052623;28;20442;-68
2023/08/17 07:59:54;;;;;;;3.30;1.30;;;17.20;99.90;;;;;;5054177;28;20123;-68
2023/08/17 08:02:20;;;;;;;5.93;1.50;;;17.20;99.90;;;;;;5053485;28;20048;-69
2023/08/17 08:04:46;;;;;;;4.43;1.30;;;17.20;99.90;;;;;;5053042;28;20091;-68
2023/08/17 08:07:11;;;;;;;2.28;1.00;;;17.30;99.90;;;;;;5053142;28;20130;-69
2023/08/17 08:09:37;;;;;;;2.63;1.15;;;17.30;99.90;;;;;;5053832;28;20049;-67
2023/08/17 08:12:03;;;;;;;2.42;1.10;;;17.40;99.90;;;;;;5053164;28;20049;-69
2023/08/17 08:14:29;;;;;;;3.53;1.20;;;17.40;99.90;;;;;;5053779;28;20047;-67
2023/08/17 08:16:55;;;;;;;4.00;1.08;;;17.40;99.90;;;;;;5053898;28;20123;-69
2023/08/17 08:19:20;;;;;;;3.17;1.10;;;17.50;99.90;;;;;;5053411;28;20513;-68
2023/08/17 08:21:46;;;;;;;3.28;1.00;;;17.50;99.90;;;;;;5053603;28;20048;-68
2023/08/17 08:24:12;;;;;;;2.03;1.00;;;17.50;99.90;;;;;;5053579;28;20041;-67
2023/08/17 08:26:38;;;;;;;2.50;1.15;;;17.60;99.90;;;;;;5036331;28;20045;-67
2023/08/17 08:29:04;;;;;;;1.73;1.00;;;17.60;99.90;;;;;;5035435;28;20067;-67
2023/08/17 08:31:29;;;;;;;2.83;1.10;;;17.70;99.90;;;;;;5053023;28;20057;-67
2023/08/17 08:33:55;;;;;;;3.83;1.20;;;17.70;99.90;;;;;;5035424;28;20102;-67
2023/08/17 08:36:21;;;;;;;2.33;1.15;;;17.70;99.90;;;;;;5053751;28;20036;-67
2023/08/17 08:38:47;;;;;;;3.03;1.10;;;17.70;99.90;;;;;;5018850;28;20529;-67
2023/08/17 08:41:13;;;;;;;4.28;1.15;;;17.70;99.90;;;;;;5052918;28;20049;-67
2023/08/17 08:43:39;;;;;;;2.10;1.08;;;17.80;99.90;;;;;;5053535;28;20124;-67
2023/08/17 08:46:05;;;;;;;2.85;1.02;;;17.80;99.90;;;;;;5052993;28;20053;-66
2023/08/17 08:48:32;;;;;;;2.65;1.00;;;17.80;99.90;;;;;;5052825;28;20045;-67
2023/08/17 08:51:00;;;;;;;2.58;1.00;;;17.90;99.90;;;;;;5052684;28;20504;-67
2023/08/17 08:53:38;;;;;;;2.13;1.10;;;17.90;99.90;;;;;;5055244;28;20393;-67
2023/08/17 08:56:10;;;;;;;3.65;1.20;;;17.90;99.90;;;;;;5039663;28;20098;-67
2023/08/17 08:58:36;;;;;;;2.45;1.08;;;17.90;99.90;;;;;;5039238;28;20049;-67
2023/08/17 09:01:03;;;;;;;3.35;1.20;;;17.90;99.90;;;;;;5056541;28;20049;-68
2023/08/17 09:03:32;;;;;;;1.70;0.90;;;17.90;99.90;;;;;;5039813;28;20059;-66
2023/08/17 09:05:58;;;;;;;2.60;1.00;;;18.00;99.90;;;;;;5056196;28;20087;-67
2023/08/17 09:08:29;;;;;;;1.70;0.90;;;18.10;99.90;;;;;;5056571;28;20101;-66
2023/08/17 09:10:54;;;;;;;5.15;1.27;;;18.20;99.90;;;;;;5039393;28;20045;-68
2023/08/17 09:13:20;;;;;;;3.72;1.10;;;18.10;99.90;;;;;;5055947;28;20402;-66
2023/08/17 09:15:46;;;;;;;4.05;1.50;;;18.20;99.90;;;;;;5055717;28;20041;-67
2023/08/17 09:18:12;;;;;;;3.35;1.20;;;18.30;99.90;;;;;;5038242;28;20045;-67
2023/08/17 09:20:44;;;;;;;2.80;1.08;;;18.40;99.90;;;;;;5056006;28;20073;-68
2023/08/17 09:23:17;;;;;;;1.88;1.00;;;18.40;99.90;;;;;;5055964;28;20099;-68
2023/08/17 09:25:44;;;;;;;3.33;1.30;;;18.50;99.90;;;;;;5054909;28;20128;-67
2023/08/17 09:28:14;;;;;;;2.05;1.00;;;18.50;99.90;;;;;;5055777;28;20417;-67
2023/08/17 09:30:57;;;;;;;2.13;1.20;;;18.60;99.90;;;;;;5054579;28;20048;-66
2023/08/17 09:33:24;;;;;;;5.20;1.58;;;18.60;99.90;;;;;;5055693;28;20099;-66
2023/08/17 09:35:51;;;;;;;2.70;1.08;;;18.50;99.90;;;;;;5055980;28;20053;-66
2023/08/17 09:38:17;;;;;;;2.67;1.10;;;18.50;99.90;;;;;;5038617;28;20139;-67
2023/08/17 09:40:43;;;;;;;2.97;1.30;;;18.40;99.90;;;;;;5055468;28;20052;-68
2023/08/17 09:43:10;;;;;;;2.55;1.27;;;18.40;99.90;;;;;;5056212;28;20049;-67
2023/08/17 09:45:39;;;;;;;3.17;1.40;;;18.40;99.90;;;;;;5055443;28;20037;-67
2023/08/17 09:48:07;;;;;;;4.07;1.27;;;18.30;99.90;;;;;;5055237;28;20390;-68
2023/08/17 09:50:33;;;;;;;2.83;1.60;;;18.30;99.90;;;;;;5055258;28;20104;-69
2023/08/17 09:52:59;;;;;;;3.13;1.40;;;18.30;99.90;;;;;;5056128;28;20442;-68
2023/08/17 09:55:25;;;;;;;2.65;1.33;;;18.20;99.90;;;;;;5054943;28;20057;-67
2023/08/17 09:57:52;;;;;;;4.05;1.40;;;18.20;99.90;;;;;;5055177;28;20409;-68
2023/08/17 10:00:19;;;;;;;3.08;1.25;;;18.20;99.90;;;;;;5055126;28;20152;-68
2023/08/17 10:02:49;;;;;;;2.08;1.25;;;18.20;99.90;;;;;;5055094;28;20071;-68
2023/08/17 10:05:18;;;;;;;3.00;1.38;;;18.10;99.90;;;;;;5036744;28;20052;-66
2023/08/17 10:07:56;;;;;;;4.03;1.40;;;18.10;99.90;;;;;;5054758;28;20061;-68
2023/08/17 10:10:26;;;;;;;2.72;1.73;;;18.00;99.90;;;;;;5055480;28;20057;-67
2023/08/17 10:13:34;;;;;;;3.30;1.65;;;18.00;99.90;;;;;;5054924;28;20053;-67
2023/08/17 10:16:11;;;;;;;2.30;1.70;;;18.10;99.90;;;;;;4938734;29;20143;-67
2023/08/17 10:18:56;;;;;;;2.83;1.67;;;18.10;99.90;;;;;;4954570;29;20043;-67
2023/08/17 10:21:37;;;;;;;3.58;1.70;;;18.20;99.90;;;;;;5024622;28;20102;-70
2023/08/17 10:24:05;;;;;;;2.80;1.88;;;18.30;99.90;;;;;;5037389;28;20049;-69
2023/08/17 10:26:31;;;;;;;2.60;1.58;;;18.30;99.90;;;;;;5055176;28;20044;-68
2023/08/17 10:28:58;;;;;;;3.47;1.90;;;18.40;99.90;;;;;;5054552;28;20088;-68
2023/08/17 10:31:25;;;;;;;4.60;2.08;;;18.40;99.90;;;;;;5054440;28;20064;-68
2023/08/17 10:33:51;;;;;;;3.85;1.90;;;18.40;99.90;;;;;;5054444;28;20128;-68
2023/08/17 10:36:18;;;;;;;5.05;1.67;;;18.40;99.90;;;;;;5054352;28;20168;-69
2023/08/17 10:38:43;;;;;;;2.17;1.67;;;18.50;99.90;;;;;;5054275;28;20094;-67
2023/08/17 10:41:14;;;;;;;3.55;1.67;;;18.50;99.90;;;;;;5053347;28;20057;-69
2023/08/17 10:43:59;;;;;;;3.13;2.08;;;18.60;99.90;;;;;;5054675;28;20151;-67
2023/08/17 10:46:35;;;;;;;3.05;1.65;;;18.60;99.90;;;;;;5054848;28;20041;-67
2023/08/17 10:49:07;;;;;;;4.18;1.92;;;18.70;99.90;;;;;;5054806;28;20381;-67
2023/08/17 10:51:34;;;;;;;3.75;1.90;;;18.70;99.90;;;;;;5053958;28;20060;-67
2023/08/17 10:54:04;;;;;;;2.97;1.95;;;18.80;99.90;;;;;;5054026;28;20045;-67
2023/08/17 10:56:30;;;;;;;4.38;2.33;;;18.90;99.90;;;;;;5053835;28;20052;-67
2023/08/17 10:59:02;;;;;;;5.60;1.83;;;18.90;99.90;;;;;;5054150;28;20044;-67
2023/08/17 11:01:40;;;;;;;2.60;1.73;;;18.90;99.90;;;;;;5054667;28;20130;-67
2023/08/17 11:04:11;;;;;;;4.07;1.92;;;18.90;99.90;;;;;;5054421;28;20041;-67
2023/08/17 11:06:37;;;;;;;3.13;2.33;;;19.00;99.90;;;;;;5053860;28;20055;-66
2023/08/17 11:09:07;;;;;;;3.33;2.30;;;19.20;99.90;;;;;;5054423;28;20048;-67
2023/08/17 11:11:33;;;;;;;4.22;2.40;;;19.50;99.90;;;;;;5036439;28;20048;-69
2023/08/17 11:13:58;;;;;;;3.30;2.65;;;19.60;99.90;;;;;;5054247;28;20094;-69
2023/08/17 11:16:24;;;;;;;4.00;2.28;;;19.70;99.90;;;;;;5054200;28;20080;-68
2023/08/17 11:18:51;;;;;;;3.80;2.38;;;19.70;99.90;;;;;;5054154;28;20520;-69
2023/08/17 11:21:17;;;;;;;3.30;2.08;;;19.80;99.90;;;;;;5053610;28;20132;-69
2023/08/17 11:23:43;;;;;;;3.80;2.30;;;19.80;99.90;;;;;;5053629;28;20436;-69
2023/08/17 11:26:09;;;;;;;3.55;2.30;;;19.80;99.90;;;;;;5053859;28;20438;-69
2023/08/17 11:28:40;;;;;;;3.22;2.50;;;19.80;99.90;;;;;;5053503;28;20087;-69
2023/08/17 11:31:08;;;;;;;4.05;2.60;;;19.80;99.90;;;;;;5052550;28;20041;-69
2023/08/17 11:33:37;;;;;;;4.88;2.42;;;19.80;99.90;;;;;;5052534;28;20049;-68
2023/08/17 11:36:05;;;;;;;6.25;2.65;;;19.80;99.90;;;;;;5036088;28;20136;-69
2023/08/17 11:38:36;;;;;;;3.13;2.20;;;19.80;99.90;;;;;;5053276;28;20041;-68
2023/08/17 11:41:02;;;;;;;6.45;2.30;;;19.70;99.90;;;;;;5053607;28;20506;-68
2023/08/17 11:43:29;;;;;;;3.55;2.65;;;19.80;99.90;;;;;;5053617;28;20390;-69
2023/08/17 11:45:56;;;;;;;3.70;2.50;;;19.80;99.90;;;;;;5053510;28;20072;-69
2023/08/17 11:48:23;;;;;;;4.25;2.63;;;20.00;99.90;;;;;;5054378;28;20453;-70
2023/08/17 11:50:49;;;;;;;4.97;2.70;;;20.00;99.90;;;;;;5053216;28;20052;-69
2023/08/17 11:53:15;;;;;;;3.80;2.80;;;20.00;99.90;;;;;;5036379;28;20049;-70
2023/08/17 11:55:41;;;;;;;4.03;2.63;;;20.10;99.90;;;;;;5053159;28;20048;-71
2023/08/17 11:58:07;;;;;;;4.90;2.50;;;20.20;99.90;;;;;;5053209;28;20045;-70
2023/08/17 12:00:40;;;;;;;3.30;2.40;;;20.10;99.90;;;;;;5053054;28;20060;-70
2023/08/17 12:03:06;;;;;;;3.72;2.63;;;20.10;99.90;;;;;;5053411;28;20102;-70
2023/08/17 12:05:32;;;;;;;4.43;2.70;;;20.00;99.90;;;;;;5053143;28;20364;-68
2023/08/17 12:08:02;;;;;;;3.63;2.30;;;19.90;99.90;;;;;;5035051;28;20103;-68
2023/08/17 12:10:29;;;;;;;3.53;2.63;;;19.90;99.90;;;;;;5035496;28;20063;-70
2023/08/17 12:12:59;;;;;;;4.88;2.80;;;19.90;99.90;;;;;;5036055;28;20434;-67
2023/08/17 12:15:33;;;;;;;4.45;2.30;;;19.80;99.90;;;;;;5053180;28;20077;-70
2023/08/17 12:18:03;;;;;;;5.13;2.33;;;19.80;99.90;;;;;;5053100;28;20391;-69
2023/08/17 12:20:29;;;;;;;3.35;2.45;;;19.80;99.90;;;;;;5053356;28;20061;-71
2023/08/17 12:22:58;;;;;;;3.45;2.30;;;19.70;99.90;;;;;;5052965;28;20110;-69
2023/08/17 12:25:25;;;;;;;5.47;2.50;;;19.70;99.90;;;;;;5051513;28;20045;-70
2023/08/17 12:27:50;;;;;;;3.88;2.42;;;19.60;99.90;;;;;;5036683;28;20443;-70
2023/08/17 12:30:32;;;;;;;3.63;2.42;;;19.60;99.90;;;;;;5039005;28;20128;-69
2023/08/17 12:33:00;;;;;;;5.18;2.47;;;19.50;99.90;;;;;;5057249;28;20045;-69
2023/08/17 12:35:26;;;;;;;4.13;2.70;;;19.50;99.90;;;;;;5057565;28;20458;-68
2023/08/17 12:37:53;;;;;;;3.83;2.55;;;19.50;99.90;;;;;;5039127;28;20047;-69
2023/08/17 12:40:19;;;;;;;7.00;2.60;;;19.50;99.90;;;;;;5039011;28;20061;-68
2023/08/17 12:42:45;;;;;;;3.22;2.35;;;19.50;99.90;;;;;;5056932;28;20117;-69
2023/08/17 12:45:11;;;;;;;4.45;2.70;;;19.50;99.90;;;;;;5057023;28;20531;-68
2023/08/17 12:47:37;;;;;;;4.03;3.10;;;19.50;99.90;;;;;;5038691;28;20045;-68